Time;durP1;ratioP1;P1;durP2;ratioP2;P2;SDS_P1;SDS_P2;PMS_P1;PMS_P2;Temp;Humidity;BMP_temperature;BMP_pressure;BME280_temperature;BME280_humidity;BME280_pressure;Samples;Min_cycle;Max_cycle;Signal;HPM_P1;HPM_P2
2024/01/29 00:01:00;;;;;;;0.80;0.80;;;;;;;;;;5016890;28;20185;-87
2024/01/29 00:03:26;;;;;;;0.90;0.90;;;;;;;;;;5017211;28;20195;-88
2024/01/29 00:05:52;;;;;;;0.90;0.90;;;;;;;;;;5032597;28;20176;-88
2024/01/29 00:08:18;;;;;;;0.80;0.80;;;;;;;;;;5034854;28;20207;-89
2024/01/29 00:10:44;;;;;;;0.77;0.77;;;;;;;;;;5035905;28;20215;-88
2024/01/29 00:13:10;;;;;;;0.87;0.87;;;;;;;;;;5051855;28;20203;-88
2024/01/29 00:15:36;;;;;;;0.90;0.90;;;;;;;;;;5055076;28;20214;-88
2024/01/29 00:18:02;;;;;;;0.80;0.80;;;;;;;;;;5054751;28;20196;-89
2024/01/29 00:20:28;;;;;;;0.90;0.90;;;;;;;;;;5053918;28;20182;-88
2024/01/29 00:22:54;;;;;;;0.90;0.90;;;;;;;;;;5038101;28;20198;-88
2024/01/29 00:25:20;;;;;;;0.90;0.90;;;;;;;;;;5035170;28;20191;-88
2024/01/29 00:27:46;;;;;;;0.80;0.80;;;;;;;;;;5034431;28;20210;-87
2024/01/29 00:30:12;;;;;;;0.90;0.90;;;;;;;;;;5035114;28;20180;-88
2024/01/29 00:32:40;;;;;;;0.90;0.90;;;;;;;;;;5035149;28;20187;-87
2024/01/29 00:35:06;;;;;;;0.90;0.90;;;;;;;;;;5034919;28;20211;-87
2024/01/29 00:37:32;;;;;;;0.90;0.90;;;;;;;;;;5020191;28;20659;-87
2024/01/29 00:39:58;;;;;;;0.90;0.90;;;;;;;;;;5013780;28;20196;-87
2024/01/29 00:42:24;;;;;;;0.90;0.90;;;;;;;;;;5015080;28;20541;-87
2024/01/29 00:44:50;;;;;;;0.90;0.90;;;;;;;;;;5014954;28;20192;-87
2024/01/29 00:47:17;;;;;;;0.90;0.90;;;;;;;;;;5014923;28;20204;-86
2024/01/29 00:49:43;;;;;;;0.90;0.90;;;;;;;;;;5014146;28;20234;-87
2024/01/29 00:52:09;;;;;;;0.70;0.70;;;;;;;;;;5013205;28;20188;-87
2024/01/29 00:54:35;;;;;;;0.90;0.90;;;;;;;;;;5013619;28;20690;-87
2024/01/29 00:57:01;;;;;;;0.90;0.90;;;;;;;;;;5014033;28;20709;-88
2024/01/29 00:59:27;;;;;;;0.90;0.90;;;;;;;;;;5020312;28;20177;-87
2024/01/29 01:01:53;;;;;;;0.90;0.90;;;;;;;;;;5018708;28;20628;-87
2024/01/29 01:04:19;;;;;;;0.87;0.87;;;;;;;;;;5023516;28;20179;-88
2024/01/29 01:06:45;;;;;;;1.00;1.00;;;;;;;;;;5036244;28;20180;-89
2024/01/29 01:09:13;;;;;;;0.90;0.90;;;;;;;;;;5048134;28;20229;-88
2024/01/29 01:11:39;;;;;;;0.90;0.90;;;;;;;;;;5033416;28;20191;-88
2024/01/29 01:14:05;;;;;;;0.90;0.90;;;;;;;;;;5031728;28;20283;-89
2024/01/29 01:16:31;;;;;;;0.80;0.80;;;;;;;;;;5031771;28;20230;-88
2024/01/29 01:18:57;;;;;;;0.90;0.90;;;;;;;;;;5021885;28;20180;-88
2024/01/29 01:21:23;;;;;;;0.90;0.90;;;;;;;;;;5013548;28;20180;-88
2024/01/29 01:23:49;;;;;;;0.90;0.90;;;;;;;;;;5013542;28;20212;-88
2024/01/29 01:26:15;;;;;;;0.90;0.90;;;;;;;;;;5013251;28;20251;-88
2024/01/29 01:28:41;;;;;;;0.90;0.90;;;;;;;;;;5013856;28;20199;-89
2024/01/29 01:31:07;;;;;;;0.80;0.80;;;;;;;;;;5013464;28;20563;-88
2024/01/29 01:33:33;;;;;;;0.90;0.90;;;;;;;;;;5013764;28;20192;-88
2024/01/29 01:35:59;;;;;;;0.87;0.87;;;;;;;;;;5022083;28;20240;-87
2024/01/29 01:38:25;;;;;;;0.90;0.90;;;;;;;;;;5028909;28;20271;-88
2024/01/29 01:40:51;;;;;;;0.90;0.90;;;;;;;;;;5021043;28;20188;-88
2024/01/29 01:43:18;;;;;;;0.90;0.90;;;;;;;;;;5027380;28;20183;-89
2024/01/29 01:45:44;;;;;;;0.80;0.80;;;;;;;;;;5036499;28;20169;-90
2024/01/29 01:48:10;;;;;;;0.90;0.90;;;;;;;;;;5031068;28;20263;-87
2024/01/29 01:50:36;;;;;;;0.90;0.90;;;;;;;;;;5014984;28;20187;-88
2024/01/29 01:53:03;;;;;;;0.80;0.80;;;;;;;;;;5013506;28;20184;-87
2024/01/29 01:55:29;;;;;;;0.90;0.90;;;;;;;;;;5014061;28;20204;-87
2024/01/29 01:57:56;;;;;;;0.80;0.80;;;;;;;;;;5013840;28;20294;-87
2024/01/29 02:00:22;;;;;;;0.90;0.90;;;;;;;;;;5014115;28;20239;-88
2024/01/29 02:02:48;;;;;;;0.80;0.80;;;;;;;;;;5013301;28;20184;-88
2024/01/29 02:05:14;;;;;;;0.80;0.80;;;;;;;;;;5014747;28;20220;-87
2024/01/29 02:07:40;;;;;;;0.90;0.90;;;;;;;;;;5013944;28;20200;-87
2024/01/29 02:10:06;;;;;;;0.90;0.90;;;;;;;;;;5014171;28;20654;-87
2024/01/29 02:12:32;;;;;;;0.80;0.80;;;;;;;;;;5014647;28;20260;-88
2024/01/29 02:14:58;;;;;;;0.83;0.83;;;;;;;;;;5014811;28;20212;-87
2024/01/29 02:17:24;;;;;;;0.90;0.90;;;;;;;;;;5016234;28;20305;-87
2024/01/29 02:19:50;;;;;;;0.90;0.90;;;;;;;;;;5034487;28;20188;-87
2024/01/29 02:22:16;;;;;;;0.80;0.80;;;;;;;;;;5036288;28;20190;-88
2024/01/29 02:24:43;;;;;;;0.80;0.80;;;;;;;;;;5037944;28;20252;-87
2024/01/29 02:27:09;;;;;;;0.90;0.90;;;;;;;;;;5038705;28;20192;-88
2024/01/29 02:29:36;;;;;;;0.90;0.90;;;;;;;;;;5018986;28;20701;-87
2024/01/29 02:32:02;;;;;;;0.90;0.90;;;;;;;;;;5018934;28;20183;-87
2024/01/29 02:34:28;;;;;;;0.90;0.90;;;;;;;;;;5019218;28;20303;-87
2024/01/29 02:36:54;;;;;;;0.90;0.90;;;;;;;;;;5025442;28;20204;-87
2024/01/29 02:39:20;;;;;;;0.80;0.80;;;;;;;;;;5020178;28;20283;-87
2024/01/29 02:41:47;;;;;;;0.80;0.80;;;;;;;;;;5038476;28;20172;-88
2024/01/29 02:44:13;;;;;;;0.90;0.90;;;;;;;;;;5038306;28;20168;-87
2024/01/29 02:46:40;;;;;;;1.00;1.00;;;;;;;;;;5038909;28;20227;-88
2024/01/29 02:49:06;;;;;;;0.80;0.80;;;;;;;;;;5039205;28;20268;-87
2024/01/29 02:51:33;;;;;;;0.80;0.80;;;;;;;;;;5039073;28;20168;-88
2024/01/29 02:53:59;;;;;;;0.90;0.90;;;;;;;;;;5038545;28;20220;-87
2024/01/29 02:56:25;;;;;;;0.90;0.90;;;;;;;;;;5031746;28;20208;-88
2024/01/29 02:58:51;;;;;;;0.90;0.90;;;;;;;;;;5018188;28;20207;-88
2024/01/29 03:01:20;;;;;;;0.90;0.90;;;;;;;;;;5018330;28;20189;-87
2024/01/29 03:03:46;;;;;;;0.90;0.90;;;;;;;;;;5017652;28;20176;-87
2024/01/29 03:06:13;;;;;;;0.70;0.70;;;;;;;;;;5016606;28;20295;-87
2024/01/29 03:08:39;;;;;;;0.90;0.90;;;;;;;;;;5018087;28;20609;-88
2024/01/29 03:11:05;;;;;;;0.80;0.80;;;;;;;;;;5018171;28;20192;-87
2024/01/29 03:13:31;;;;;;;0.90;0.90;;;;;;;;;;5017182;28;20180;-87
2024/01/29 03:15:57;;;;;;;0.80;0.80;;;;;;;;;;5018520;28;20227;-88
2024/01/29 03:18:23;;;;;;;0.90;0.90;;;;;;;;;;5016168;28;20177;-87
2024/01/29 03:20:49;;;;;;;0.93;0.93;;;;;;;;;;5018546;28;20192;-88
2024/01/29 03:23:15;;;;;;;0.93;0.93;;;;;;;;;;5018069;28;20561;-87
2024/01/29 03:25:41;;;;;;;0.80;0.80;;;;;;;;;;5017162;28;20187;-87
2024/01/29 03:28:07;;;;;;;0.80;0.80;;;;;;;;;;5018008;28;20196;-88
2024/01/29 03:30:33;;;;;;;0.80;0.80;;;;;;;;;;5017797;28;20183;-87
2024/01/29 03:32:59;;;;;;;0.90;0.90;;;;;;;;;;5020559;28;20176;-88
2024/01/29 03:35:25;;;;;;;0.90;0.90;;;;;;;;;;5036460;28;20268;-86
2024/01/29 03:37:51;;;;;;;0.80;0.80;;;;;;;;;;5035322;28;20208;-87
2024/01/29 03:40:17;;;;;;;0.80;0.80;;;;;;;;;;5018932;28;20231;-87
2024/01/29 03:42:43;;;;;;;0.90;0.90;;;;;;;;;;5035174;28;20169;-89
2024/01/29 03:45:09;;;;;;;0.80;0.80;;;;;;;;;;5037796;28;20203;-88
2024/01/29 03:47:35;;;;;;;0.80;0.80;;;;;;;;;;5031112;28;20200;-87
2024/01/29 03:50:02;;;;;;;0.83;0.83;;;;;;;;;;5020520;28;20192;-87
2024/01/29 03:52:28;;;;;;;0.90;0.90;;;;;;;;;;5019009;28;20181;-88
2024/01/29 03:54:54;;;;;;;0.90;0.90;;;;;;;;;;5021114;28;20275;-87
2024/01/29 03:57:20;;;;;;;0.90;0.90;;;;;;;;;;5021024;28;20200;-87
2024/01/29 03:59:46;;;;;;;0.90;0.90;;;;;;;;;;5020449;28;20203;-87
2024/01/29 04:02:12;;;;;;;0.90;0.90;;;;;;;;;;5018672;28;20180;-87
2024/01/29 04:04:38;;;;;;;0.80;0.80;;;;;;;;;;5018757;28;20246;-86
2024/01/29 04:07:04;;;;;;;0.90;0.90;;;;;;;;;;5017726;28;20671;-87
2024/01/29 04:09:31;;;;;;;0.90;0.90;;;;;;;;;;5017727;28;20208;-87
2024/01/29 04:11:57;;;;;;;0.90;0.90;;;;;;;;;;5018477;28;20199;-87
2024/01/29 04:14:23;;;;;;;0.90;0.90;;;;;;;;;;5016987;28;20208;-87
2024/01/29 04:16:49;;;;;;;0.90;0.90;;;;;;;;;;5017290;28;20300;-87
2024/01/29 04:19:15;;;;;;;0.90;0.90;;;;;;;;;;5017974;28;20267;-87
2024/01/29 04:21:42;;;;;;;0.80;0.80;;;;;;;;;;5017366;28;20172;-86
2024/01/29 04:24:08;;;;;;;1.00;1.00;;;;;;;;;;5016609;28;20177;-87
2024/01/29 04:26:33;;;;;;;0.90;0.90;;;;;;;;;;5018983;28;20203;-87
2024/01/29 04:28:59;;;;;;;0.90;0.90;;;;;;;;;;5020087;28;20350;-89
2024/01/29 04:31:25;;;;;;;0.90;0.90;;;;;;;;;;5025293;28;20180;-84
2024/01/29 04:33:51;;;;;;;0.90;0.90;;;;;;;;;;5020391;28;20639;-86
2024/01/29 04:36:17;;;;;;;0.90;0.90;;;;;;;;;;5022633;28;20204;-89
2024/01/29 04:38:43;;;;;;;0.90;0.90;;;;;;;;;;5023219;28;20219;-87
2024/01/29 04:41:19;;;;;;;0.90;0.90;;;;;;;;;;5022152;28;20215;-86
2024/01/29 04:43:45;;;;;;;0.90;0.90;;;;;;;;;;5023363;28;20805;-87
2024/01/29 04:46:12;;;;;;;1.10;1.10;;;;;;;;;;5022766;28;20686;-87
2024/01/29 04:48:39;;;;;;;0.90;0.90;;;;;;;;;;5020313;28;20180;-87
2024/01/29 04:51:05;;;;;;;0.90;0.90;;;;;;;;;;5022996;28;20200;-87
2024/01/29 04:53:31;;;;;;;0.90;0.90;;;;;;;;;;5022230;28;20185;-87
2024/01/29 04:55:57;;;;;;;0.80;0.80;;;;;;;;;;5022300;28;20258;-87
2024/01/29 04:58:23;;;;;;;1.00;1.00;;;;;;;;;;5022232;28;20542;-86
2024/01/29 05:00:49;;;;;;;0.90;0.90;;;;;;;;;;5022742;28;20184;-88
2024/01/29 05:03:15;;;;;;;0.90;0.90;;;;;;;;;;5024865;28;20208;-87
2024/01/29 05:05:41;;;;;;;0.90;0.90;;;;;;;;;;5024241;28;20180;-89
2024/01/29 05:08:07;;;;;;;0.80;0.80;;;;;;;;;;5025939;28;20192;-87
2024/01/29 05:10:33;;;;;;;0.90;0.90;;;;;;;;;;5024276;28;20184;-85
2024/01/29 05:13:00;;;;;;;0.93;0.93;;;;;;;;;;5007114;28;20567;-84
2024/01/29 05:15:27;;;;;;;0.97;0.97;;;;;;;;;;5007534;28;20527;-84
2024/01/29 05:17:53;;;;;;;0.90;0.90;;;;;;;;;;5001157;28;20782;-85
2024/01/29 05:20:19;;;;;;;0.90;0.90;;;;;;;;;;5000137;28;20651;-85
2024/01/29 05:22:45;;;;;;;0.80;0.80;;;;;;;;;;5004376;28;20185;-86
2024/01/29 05:25:11;;;;;;;1.10;1.10;;;;;;;;;;5007054;28;20176;-85
2024/01/29 05:27:37;;;;;;;0.90;0.90;;;;;;;;;;5006384;28;20206;-86
2024/01/29 05:30:03;;;;;;;0.83;0.83;;;;;;;;;;5006839;28;20173;-87
2024/01/29 05:32:29;;;;;;;0.90;0.90;;;;;;;;;;5006434;28;20240;-84
2024/01/29 05:34:55;;;;;;;0.80;0.80;;;;;;;;;;5005461;28;20193;-85
2024/01/29 05:37:21;;;;;;;0.90;0.90;;;;;;;;;;5014168;28;20373;-83
2024/01/29 05:39:47;;;;;;;0.90;0.90;;;;;;;;;;5017168;28;20172;-84
2024/01/29 05:42:13;;;;;;;0.90;0.90;;;;;;;;;;5026116;28;20187;-84
2024/01/29 05:44:39;;;;;;;0.90;0.90;;;;;;;;;;5035794;28;20183;-83
2024/01/29 05:47:05;;;;;;;0.80;0.80;;;;;;;;;;5035327;28;20301;-83
2024/01/29 05:49:31;;;;;;;0.90;0.90;;;;;;;;;;5017805;28;20271;-85
2024/01/29 05:51:57;;;;;;;0.80;0.80;;;;;;;;;;5013861;28;20223;-86
2024/01/29 05:54:23;;;;;;;0.90;0.90;;;;;;;;;;5014166;28;20235;-84
2024/01/29 05:56:50;;;;;;;0.90;0.90;;;;;;;;;;5013855;28;20273;-85
2024/01/29 05:59:16;;;;;;;0.90;0.90;;;;;;;;;;5013791;28;20177;-84
2024/01/29 06:01:43;;;;;;;0.90;0.90;;;;;;;;;;5018795;28;20203;-85
2024/01/29 06:04:09;;;;;;;0.80;0.80;;;;;;;;;;5021251;28;20184;-85
2024/01/29 06:06:37;;;;;;;0.90;0.90;;;;;;;;;;5022207;28;20274;-86
2024/01/29 06:09:05;;;;;;;1.00;1.00;;;;;;;;;;5022760;28;20264;-84
2024/01/29 06:11:31;;;;;;;0.90;0.90;;;;;;;;;;5023661;28;20235;-85
2024/01/29 06:13:58;;;;;;;0.90;0.90;;;;;;;;;;5022300;28;20180;-86
2024/01/29 06:16:25;;;;;;;1.00;1.00;;;;;;;;;;5027500;28;20212;-85
2024/01/29 06:18:51;;;;;;;0.80;0.80;;;;;;;;;;5027452;28;20168;-86
2024/01/29 06:21:17;;;;;;;0.80;0.80;;;;;;;;;;5022314;28;20177;-86
2024/01/29 06:23:43;;;;;;;0.80;0.80;;;;;;;;;;5034066;28;20179;-84
2024/01/29 06:26:09;;;;;;;0.90;0.90;;;;;;;;;;5039412;28;20260;-85
2024/01/29 06:28:35;;;;;;;0.90;0.90;;;;;;;;;;5027184;28;20798;-86
2024/01/29 06:31:01;;;;;;;1.00;1.00;;;;;;;;;;5024427;28;20184;-86
2024/01/29 06:33:27;;;;;;;0.90;0.90;;;;;;;;;;5024991;28;20168;-86
2024/01/29 06:35:53;;;;;;;0.90;0.90;;;;;;;;;;5024933;28;20689;-86
2024/01/29 06:38:19;;;;;;;0.90;0.90;;;;;;;;;;5023090;28;20173;-86
2024/01/29 06:40:45;;;;;;;0.80;0.80;;;;;;;;;;5020723;28;20280;-86
2024/01/29 06:43:12;;;;;;;0.97;0.97;;;;;;;;;;5020727;28;20191;-86
2024/01/29 06:45:37;;;;;;;0.90;0.90;;;;;;;;;;5019819;28;20180;-86
2024/01/29 06:48:05;;;;;;;0.80;0.80;;;;;;;;;;5020817;28;20200;-85
2024/01/29 06:50:33;;;;;;;0.90;0.90;;;;;;;;;;5022256;28;20222;-83
2024/01/29 06:52:59;;;;;;;0.90;0.90;;;;;;;;;;5021185;28;20176;-86
2024/01/29 06:55:25;;;;;;;0.90;0.90;;;;;;;;;;5030217;28;20720;-86
2024/01/29 06:57:51;;;;;;;0.80;0.80;;;;;;;;;;5017880;28;20192;-85
2024/01/29 07:00:17;;;;;;;0.90;0.90;;;;;;;;;;5026251;28;20248;-83
2024/01/29 07:02:43;;;;;;;0.90;0.90;;;;;;;;;;5021488;28;20181;-86
2024/01/29 07:05:09;;;;;;;1.00;1.00;;;;;;;;;;5016710;28;20270;-85
2024/01/29 07:07:35;;;;;;;0.80;0.80;;;;;;;;;;5017786;28;20204;-86
2024/01/29 07:10:01;;;;;;;0.90;0.90;;;;;;;;;;5017637;28;20180;-85
2024/01/29 07:12:27;;;;;;;0.90;0.90;;;;;;;;;;5017428;28;20596;-86
2024/01/29 07:14:54;;;;;;;0.90;0.90;;;;;;;;;;5017618;28;20192;-86
2024/01/29 07:17:21;;;;;;;0.90;0.90;;;;;;;;;;5017783;28;20231;-85
2024/01/29 07:19:48;;;;;;;0.90;0.90;;;;;;;;;;5015511;28;20168;-85
2024/01/29 07:22:18;;;;;;;0.87;0.87;;;;;;;;;;5017011;28;20172;-84
2024/01/29 07:24:45;;;;;;;0.90;0.90;;;;;;;;;;5013578;28;20208;-86
2024/01/29 07:27:11;;;;;;;0.80;0.80;;;;;;;;;;5020980;28;20199;-86
2024/01/29 07:29:37;;;;;;;0.87;0.87;;;;;;;;;;5022392;28;20180;-86
2024/01/29 07:32:04;;;;;;;0.70;0.70;;;;;;;;;;5016530;28;20554;-86
2024/01/29 07:34:30;;;;;;;0.90;0.90;;;;;;;;;;5013359;28;20611;-87
2024/01/29 07:36:56;;;;;;;0.90;0.90;;;;;;;;;;5005858;28;20231;-86
2024/01/29 07:39:22;;;;;;;0.77;0.77;;;;;;;;;;5007272;28;20184;-86
2024/01/29 07:41:49;;;;;;;0.80;0.80;;;;;;;;;;5023242;28;20179;-87
2024/01/29 07:44:16;;;;;;;0.63;0.63;;;;;;;;;;5026645;28;20216;-87
2024/01/29 07:46:42;;;;;;;0.50;0.50;;;;;;;;;;5027426;28;20205;-86
2024/01/29 07:49:08;;;;;;;0.60;0.60;;;;;;;;;;5005772;28;20203;-87
2024/01/29 07:51:34;;;;;;;0.70;0.70;;;;;;;;;;4995864;28;20659;-87
2024/01/29 07:54:00;;;;;;;0.60;0.60;;;;;;;;;;4998742;28;20631;-85
2024/01/29 07:56:26;;;;;;;0.63;0.63;;;;;;;;;;5018152;28;20204;-85
2024/01/29 07:58:52;;;;;;;0.60;0.60;;;;;;;;;;5018553;28;20184;-85
2024/01/29 08:01:18;;;;;;;0.60;0.60;;;;;;;;;;5018826;28;20181;-84
2024/01/29 08:03:44;;;;;;;0.60;0.60;;;;;;;;;;5018768;28;20170;-84
2024/01/29 08:06:10;;;;;;;0.70;0.70;;;;;;;;;;5018134;28;20230;-84
2024/01/29 08:08:36;;;;;;;0.50;0.50;;;;;;;;;;5018663;28;20165;-85
2024/01/29 08:11:03;;;;;;;0.60;0.60;;;;;;;;;;5007046;28;20189;-84
2024/01/29 08:13:29;;;;;;;0.70;0.70;;;;;;;;;;4999358;28;20335;-85
2024/01/29 08:15:55;;;;;;;0.60;0.60;;;;;;;;;;4995577;28;20264;-86
2024/01/29 08:18:22;;;;;;;0.40;0.40;;;;;;;;;;4995238;28;20232;-86
2024/01/29 08:20:48;;;;;;;0.40;0.40;;;;;;;;;;4994844;28;20674;-86
2024/01/29 08:23:14;;;;;;;0.33;0.33;;;;;;;;;;4993977;28;20586;-86
2024/01/29 08:25:40;;;;;;;0.40;0.40;;;;;;;;;;5007186;28;20183;-85
2024/01/29 08:28:06;;;;;;;0.40;0.40;;;;;;;;;;5017511;28;20197;-86
2024/01/29 08:30:32;;;;;;;0.40;0.40;;;;;;;;;;5017646;28;20165;-85
2024/01/29 08:32:58;;;;;;;0.40;0.40;;;;;;;;;;5017225;28;20165;-86
2024/01/29 08:35:24;;;;;;;0.40;0.40;;;;;;;;;;5017531;28;20243;-86
2024/01/29 08:37:52;;;;;;;0.50;0.50;;;;;;;;;;5017332;28;20201;-87
2024/01/29 08:40:18;;;;;;;0.47;0.47;;;;;;;;;;5009647;28;20236;-86
2024/01/29 08:42:44;;;;;;;0.37;0.37;;;;;;;;;;4999484;28;20173;-86
2024/01/29 08:45:15;;;;;;;0.40;0.40;;;;;;;;;;4996824;28;20449;-86
2024/01/29 08:47:41;;;;;;;0.30;0.30;;;;;;;;;;4994298;28;20707;-86
2024/01/29 08:50:07;;;;;;;0.30;0.30;;;;;;;;;;5013894;28;20169;-86
2024/01/29 08:52:33;;;;;;;0.40;0.40;;;;;;;;;;4994480;28;20251;-86
2024/01/29 08:54:59;;;;;;;0.33;0.33;;;;;;;;;;4993787;28;20212;-86
2024/01/29 08:57:25;;;;;;;0.33;0.33;;;;;;;;;;4993979;28;20683;-86
2024/01/29 08:59:51;;;;;;;0.30;0.30;;;;;;;;;;4999952;28;20600;-86
2024/01/29 09:02:17;;;;;;;0.40;0.40;;;;;;;;;;5007336;28;20200;-86
2024/01/29 09:04:43;;;;;;;0.30;0.30;;;;;;;;;;5004003;28;20623;-86
2024/01/29 09:07:09;;;;;;;0.40;0.40;;;;;;;;;;5005794;28;20208;-86
2024/01/29 09:09:35;;;;;;;0.30;0.30;;;;;;;;;;4993802;28;20213;-85
2024/01/29 09:12:01;;;;;;;0.40;0.40;;;;;;;;;;4993973;28;20209;-86
2024/01/29 09:14:27;;;;;;;0.40;0.40;;;;;;;;;;4994899;28;20220;-86
2024/01/29 09:16:53;;;;;;;0.30;0.30;;;;;;;;;;4992511;28;20910;-85
2024/01/29 09:19:21;;;;;;;0.30;0.30;;;;;;;;;;4993543;28;20177;-87
2024/01/29 09:21:48;;;;;;;0.30;0.30;;;;;;;;;;4992035;28;20734;-85
2024/01/29 09:24:14;;;;;;;0.30;0.30;;;;;;;;;;4995403;28;20618;-86
2024/01/29 09:26:40;;;;;;;0.40;0.40;;;;;;;;;;5001611;28;20204;-86
2024/01/29 09:29:06;;;;;;;0.30;0.30;;;;;;;;;;5009925;28;20177;-86
2024/01/29 09:31:32;;;;;;;0.30;0.30;;;;;;;;;;5005597;28;20278;-85
2024/01/29 09:33:58;;;;;;;0.50;0.50;;;;;;;;;;5016725;28;20182;-85
2024/01/29 09:36:24;;;;;;;0.30;0.30;;;;;;;;;;5020191;28;20200;-86
2024/01/29 09:38:50;;;;;;;0.30;0.30;;;;;;;;;;5017857;28;20669;-84
2024/01/29 09:41:16;;;;;;;0.40;0.40;;;;;;;;;;5019880;28;20176;-86
2024/01/29 09:43:43;;;;;;;0.30;0.30;;;;;;;;;;5008242;28;20189;-86
2024/01/29 09:46:10;;;;;;;0.40;0.40;;;;;;;;;;4999751;28;20200;-85
2024/01/29 09:48:37;;;;;;;0.40;0.40;;;;;;;;;;5001676;28;20181;-85
2024/01/29 09:51:03;;;;;;;0.50;0.50;;;;;;;;;;5000644;28;20262;-85
2024/01/29 09:53:30;;;;;;;0.40;0.40;;;;;;;;;;5000511;28;20219;-86
2024/01/29 09:55:56;;;;;;;0.40;0.40;;;;;;;;;;5000893;28;20535;-87
2024/01/29 09:58:22;;;;;;;0.47;0.47;;;;;;;;;;5002753;28;20189;-85
2024/01/29 10:00:48;;;;;;;0.40;0.40;;;;;;;;;;5002937;28;20264;-86
2024/01/29 10:03:21;;;;;;;0.30;0.30;;;;;;;;;;4999485;28;20185;-85
2024/01/29 10:05:48;;;;;;;0.30;0.30;;;;;;;;;;4999330;28;20193;-86
2024/01/29 10:08:16;;;;;;;0.30;0.30;;;;;;;;;;4997585;28;20192;-85
2024/01/29 10:10:42;;;;;;;0.20;0.20;;;;;;;;;;4997695;28;20601;-86
2024/01/29 10:13:09;;;;;;;0.30;0.30;;;;;;;;;;5002737;28;20260;-86
2024/01/29 10:15:35;;;;;;;0.30;0.30;;;;;;;;;;5018390;28;20592;-86
2024/01/29 10:18:01;;;;;;;0.20;0.20;;;;;;;;;;5014852;28;20281;-86
2024/01/29 10:20:28;;;;;;;0.43;0.43;;;;;;;;;;5028541;28;20176;-86
2024/01/29 10:23:00;;;;;;;0.30;0.30;;;;;;;;;;5029811;28;20177;-86
2024/01/29 10:25:28;;;;;;;0.50;0.50;;;;;;;;;;5009812;28;20276;-86
2024/01/29 10:27:54;;;;;;;0.40;0.40;;;;;;;;;;4995976;28;20628;-86
2024/01/29 10:30:20;;;;;;;0.50;0.50;;;;;;;;;;4995467;28;20185;-86
2024/01/29 10:32:46;;;;;;;0.30;0.30;;;;;;;;;;4998914;28;20619;-85
2024/01/29 10:35:12;;;;;;;0.30;0.30;;;;;;;;;;5000147;28;20295;-87
2024/01/29 10:37:38;;;;;;;0.40;0.40;;;;;;;;;;4996064;28;20541;-85
2024/01/29 10:40:06;;;;;;;0.30;0.30;;;;;;;;;;4997087;28;20268;-86
2024/01/29 10:42:32;;;;;;;0.40;0.40;;;;;;;;;;4997432;28;20181;-87
2024/01/29 10:44:59;;;;;;;0.30;0.30;;;;;;;;;;5000212;28;20181;-87
2024/01/29 10:47:28;;;;;;;0.37;0.37;;;;;;;;;;5021078;28;20347;-86
2024/01/29 10:49:54;;;;;;;0.40;0.40;;;;;;;;;;5022406;28;20177;-87
2024/01/29 10:52:20;;;;;;;0.30;0.30;;;;;;;;;;5024821;28;20211;-86
2024/01/29 10:54:46;;;;;;;0.40;0.40;;;;;;;;;;5021404;28;20204;-86
2024/01/29 10:57:13;;;;;;;0.40;0.40;;;;;;;;;;5022096;28;20295;-87
2024/01/29 10:59:42;;;;;;;0.37;0.37;;;;;;;;;;5021093;28;20180;-86
2024/01/29 11:02:10;;;;;;;0.40;0.40;;;;;;;;;;5020991;28;20168;-86
2024/01/29 11:04:36;;;;;;;0.40;0.40;;;;;;;;;;5022147;28;20180;-86
2024/01/29 11:07:06;;;;;;;0.40;0.40;;;;;;;;;;5017546;28;20200;-85
2024/01/29 11:09:33;;;;;;;0.40;0.40;;;;;;;;;;5017107;28;20191;-86
2024/01/29 11:12:00;;;;;;;0.30;0.30;;;;;;;;;;5017118;28;20172;-86
2024/01/29 11:14:26;;;;;;;0.30;0.30;;;;;;;;;;5015938;28;20208;-86
2024/01/29 11:16:52;;;;;;;0.40;0.40;;;;;;;;;;5008997;28;20286;-87
2024/01/29 11:19:20;;;;;;;0.30;0.30;;;;;;;;;;5007686;28;20180;-86
2024/01/29 11:21:50;;;;;;;0.40;0.40;;;;;;;;;;5011241;28;20208;-87
2024/01/29 11:24:16;;;;;;;0.30;0.30;;;;;;;;;;5007092;28;20204;-85
2024/01/29 11:26:43;;;;;;;0.30;0.30;;;;;;;;;;5002272;28;20208;-85
2024/01/29 11:29:10;;;;;;;0.30;0.30;;;;;;;;;;5002755;28;20643;-86
2024/01/29 11:31:59;;;;;;;0.30;0.30;;;;;;;;;;5001125;28;20708;-88
2024/01/29 11:34:28;;;;;;;0.33;0.33;;;;;;;;;;5005943;28;20213;-85
2024/01/29 11:36:54;;;;;;;0.30;0.30;;;;;;;;;;5017549;28;20208;-87
2024/01/29 11:39:24;;;;;;;0.40;0.40;;;;;;;;;;5022993;28;20283;-87
2024/01/29 11:41:51;;;;;;;0.30;0.30;;;;;;;;;;5018015;28;20189;-89
2024/01/29 11:44:21;;;;;;;0.30;0.30;;;;;;;;;;5018005;28;20201;-85
2024/01/29 11:46:48;;;;;;;0.40;0.40;;;;;;;;;;5016771;28;20205;-84
2024/01/29 11:49:23;;;;;;;0.40;0.40;;;;;;;;;;5012353;28;20208;-85
2024/01/29 11:51:49;;;;;;;0.40;0.40;;;;;;;;;;4997551;28;20177;-84
2024/01/29 11:54:15;;;;;;;0.50;0.50;;;;;;;;;;5005431;28;20208;-85
2024/01/29 11:56:40;;;;;;;0.40;0.40;;;;;;;;;;5012702;28;20231;-87
2024/01/29 11:59:11;;;;;;;0.40;0.40;;;;;;;;;;5020681;28;20180;-86
2024/01/29 12:01:37;;;;;;;0.40;0.40;;;;;;;;;;5032895;28;20200;-86
2024/01/29 12:04:03;;;;;;;0.40;0.40;;;;;;;;;;5035768;28;20172;-87
2024/01/29 12:06:32;;;;;;;0.40;0.40;;;;;;;;;;5033182;28;20204;-86
2024/01/29 12:08:58;;;;;;;0.40;0.40;;;;;;;;;;5033516;28;20176;-85
2024/01/29 12:11:27;;;;;;;0.30;0.30;;;;;;;;;;5012599;28;20268;-85
2024/01/29 12:13:56;;;;;;;0.40;0.40;;;;;;;;;;5001616;28;20511;-85
2024/01/29 12:16:23;;;;;;;0.40;0.40;;;;;;;;;;5008980;28;20248;-85
2024/01/29 12:18:49;;;;;;;0.40;0.40;;;;;;;;;;5007036;28;20192;-85
2024/01/29 12:21:15;;;;;;;0.50;0.50;;;;;;;;;;5007680;28;20577;-85
2024/01/29 12:23:42;;;;;;;0.50;0.50;;;;;;;;;;5024933;28;20236;-87
2024/01/29 12:26:08;;;;;;;0.50;0.50;;;;;;;;;;5024713;28;20208;-85
2024/01/29 12:28:34;;;;;;;0.50;0.50;;;;;;;;;;5008912;28;20207;-85
2024/01/29 12:31:05;;;;;;;0.30;0.30;;;;;;;;;;5012651;28;20212;-85
2024/01/29 12:33:32;;;;;;;0.50;0.50;;;;;;;;;;5008966;28;20533;-84
2024/01/29 12:35:58;;;;;;;0.30;0.30;;;;;;;;;;4997465;28;20213;-84
2024/01/29 12:38:25;;;;;;;0.40;0.40;;;;;;;;;;4997210;28;20177;-86
2024/01/29 12:40:57;;;;;;;0.30;0.30;;;;;;;;;;4997717;28;20199;-86
2024/01/29 12:43:27;;;;;;;0.40;0.40;;;;;;;;;;4996362;28;20276;-85
2024/01/29 12:46:02;;;;;;;0.40;0.40;;;;;;;;;;4997599;28;20733;-85
2024/01/29 12:48:28;;;;;;;0.40;0.40;;;;;;;;;;4997577;28;20172;-85
2024/01/29 12:50:54;;;;;;;0.30;0.30;;;;;;;;;;4998940;28;20241;-85
2024/01/29 12:53:21;;;;;;;0.30;0.30;;;;;;;;;;4998767;28;20178;-87
2024/01/29 12:55:47;;;;;;;0.23;0.23;;;;;;;;;;4997116;28;20215;-86
2024/01/29 12:58:13;;;;;;;0.30;0.30;;;;;;;;;;5009392;28;20200;-85
2024/01/29 13:00:43;;;;;;;0.30;0.30;;;;;;;;;;5033720;28;20176;-87
2024/01/29 13:03:09;;;;;;;0.30;0.30;;;;;;;;;;5036581;28;20195;-87
2024/01/29 13:05:36;;;;;;;0.50;0.50;;;;;;;;;;5030479;28;20172;-85
2024/01/29 13:08:02;;;;;;;0.40;0.40;;;;;;;;;;5026424;28;20289;-85
2024/01/29 13:10:30;;;;;;;0.30;0.30;;;;;;;;;;5015330;28;20215;-85
2024/01/29 13:12:56;;;;;;;0.30;0.30;;;;;;;;;;5009390;28;20256;-86
2024/01/29 13:15:22;;;;;;;0.37;0.37;;;;;;;;;;5020538;28;20232;-85
2024/01/29 13:17:48;;;;;;;0.30;0.30;;;;;;;;;;5029941;28;20215;-85
2024/01/29 13:20:14;;;;;;;0.40;0.40;;;;;;;;;;5031142;28;20184;-85
2024/01/29 13:22:40;;;;;;;0.40;0.40;;;;;;;;;;5024626;28;20184;-87
2024/01/29 13:25:07;;;;;;;0.40;0.40;;;;;;;;;;5001295;28;20272;-87
2024/01/29 13:27:33;;;;;;;0.43;0.43;;;;;;;;;;5002054;28;20201;-84
2024/01/29 13:29:59;;;;;;;0.40;0.40;;;;;;;;;;4999054;28;20275;-85
2024/01/29 13:32:25;;;;;;;0.30;0.30;;;;;;;;;;5015285;28;20204;-85
2024/01/29 13:34:51;;;;;;;0.30;0.30;;;;;;;;;;5000183;28;20702;-85
2024/01/29 13:37:17;;;;;;;0.40;0.40;;;;;;;;;;4996969;28;20212;-86
2024/01/29 13:39:44;;;;;;;0.40;0.40;;;;;;;;;;4995447;28;20212;-86
2024/01/29 13:42:10;;;;;;;0.30;0.30;;;;;;;;;;5014376;28;20188;-86
2024/01/29 13:44:36;;;;;;;0.50;0.50;;;;;;;;;;5016562;28;20177;-86
2024/01/29 13:47:03;;;;;;;0.30;0.30;;;;;;;;;;5020087;28;20199;-85
2024/01/29 13:49:29;;;;;;;0.30;0.30;;;;;;;;;;5035517;28;20224;-85
2024/01/29 13:51:55;;;;;;;0.40;0.40;;;;;;;;;;5013312;28;20212;-85
2024/01/29 13:54:21;;;;;;;0.30;0.30;;;;;;;;;;4998557;28;20235;-85
2024/01/29 13:56:47;;;;;;;0.40;0.40;;;;;;;;;;5009782;28;20196;-85
2024/01/29 13:59:13;;;;;;;0.30;0.30;;;;;;;;;;5001346;28;20255;-85
2024/01/29 14:01:39;;;;;;;0.40;0.40;;;;;;;;;;5015792;28;20211;-85
2024/01/29 14:04:05;;;;;;;0.40;0.40;;;;;;;;;;5015633;28;20193;-85
2024/01/29 14:06:31;;;;;;;0.40;0.40;;;;;;;;;;5026683;28;20211;-85
2024/01/29 14:08:57;;;;;;;0.50;0.50;;;;;;;;;;5035073;28;20192;-85
2024/01/29 14:11:23;;;;;;;0.43;0.43;;;;;;;;;;5034301;28;20183;-85
2024/01/29 14:13:49;;;;;;;0.40;0.40;;;;;;;;;;5023705;28;20181;-84
2024/01/29 14:16:15;;;;;;;0.50;0.50;;;;;;;;;;5013138;28;20224;-85
2024/01/29 14:18:41;;;;;;;0.53;0.53;;;;;;;;;;5014530;28;20162;-86
2024/01/29 14:21:07;;;;;;;0.40;0.40;;;;;;;;;;5019389;28;20192;-86
2024/01/29 14:23:34;;;;;;;0.40;0.40;;;;;;;;;;5034071;28;20177;-85
2024/01/29 14:26:00;;;;;;;0.40;0.40;;;;;;;;;;5025010;28;20200;-86
2024/01/29 14:28:26;;;;;;;0.30;0.30;;;;;;;;;;5021724;28;20187;-85
2024/01/29 14:30:52;;;;;;;0.40;0.40;;;;;;;;;;5038374;28;20184;-84
2024/01/29 14:33:18;;;;;;;0.40;0.40;;;;;;;;;;5031286;28;20175;-84
2024/01/29 14:35:44;;;;;;;0.47;0.47;;;;;;;;;;5018059;28;20229;-85
2024/01/29 14:38:10;;;;;;;0.50;0.50;;;;;;;;;;5017918;28;20289;-85